Time;durP1;ratioP1;P1;durP2;ratioP2;P2;SDS_P1;SDS_P2;PMS_P1;PMS_P2;Temp;Humidity;BMP_temperature;BMP_pressure;BME280_temperature;BME280_humidity;BME280_pressure;Samples;Min_cycle;Max_cycle;Signal;HPM_P1;HPM_P2
2023/08/03 00:00:16;;;;;;;4.28;0.70;;;;;;;;;;5029780;28;20059;-66
2023/08/03 00:02:43;;;;;;;1.48;0.82;;;;;;;;;;5029930;28;20049;-66
2023/08/03 00:05:10;;;;;;;5.43;1.05;;;;;;;;;;5029586;28;20049;-67
2023/08/03 00:07:36;;;;;;;3.28;0.75;;;;;;;;;;5030375;28;20050;-67
2023/08/03 00:10:03;;;;;;;2.90;0.80;;;;;;;;;;5029084;28;20049;-66
2023/08/03 00:12:30;;;;;;;2.95;0.85;;;;;;;;;;5029976;28;20422;-67
2023/08/03 00:14:57;;;;;;;2.08;0.90;;;;;;;;;;5029630;28;20041;-67
2023/08/03 00:17:25;;;;;;;2.42;0.90;;;;;;;;;;5029856;28;20517;-66
2023/08/03 00:19:51;;;;;;;2.88;0.93;;;;;;;;;;5028673;28;20412;-67
2023/08/03 00:22:18;;;;;;;2.90;0.95;;;;;;;;;;5030257;28;20047;-66
2023/08/03 00:24:45;;;;;;;3.25;0.90;;;;;;;;;;5029544;28;20077;-67
2023/08/03 00:27:12;;;;;;;2.10;0.70;;;;;;;;;;5030885;28;20057;-66
2023/08/03 00:29:38;;;;;;;2.42;1.10;;;;;;;;;;5030207;28;20492;-66
2023/08/03 00:32:07;;;;;;;3.05;0.93;;;;;;;;;;5030914;28;20069;-67
2023/08/03 00:34:35;;;;;;;4.00;0.80;;;;;;;;;;5030362;28;20054;-67
2023/08/03 00:37:02;;;;;;;3.50;0.70;;;;;;;;;;5029827;28;20112;-67
2023/08/03 00:39:29;;;;;;;3.03;0.63;;;;;;;;;;5029407;28;20046;-67
2023/08/03 00:41:55;;;;;;;2.50;0.70;;;;;;;;;;5030015;28;20308;-66
2023/08/03 00:44:22;;;;;;;2.33;0.60;;;;;;;;;;5029839;28;20507;-66
2023/08/03 00:46:48;;;;;;;2.13;0.70;;;;;;;;;;5029122;28;20052;-66
2023/08/03 00:49:15;;;;;;;1.95;0.50;;;;;;;;;;5029679;28;20068;-67
2023/08/03 00:51:43;;;;;;;2.50;0.95;;;;;;;;;;5028984;28;20053;-66
2023/08/03 00:54:10;;;;;;;2.45;0.93;;;;;;;;;;5029914;28;20045;-66
2023/08/03 00:56:37;;;;;;;5.10;1.58;;;;;;;;;;5029292;28;20051;-66
2023/08/03 00:59:05;;;;;;;4.75;0.70;;;;;;;;;;5032778;28;20483;-67
2023/08/03 01:01:31;;;;;;;3.45;0.80;;;;;;;;;;5032159;28;20419;-66
2023/08/03 01:03:58;;;;;;;1.45;0.70;;;;;;;;;;5033466;28;20398;-67
2023/08/03 01:06:24;;;;;;;1.80;0.80;;;;;;;;;;5032942;28;20041;-66
2023/08/03 01:08:54;;;;;;;1.33;0.63;;;;;;;;;;5033397;28;20132;-67
2023/08/03 01:11:21;;;;;;;3.85;0.70;;;;;;;;;;5032478;28;20056;-67
2023/08/03 01:13:48;;;;;;;2.28;0.80;;;;;;;;;;5033078;28;20458;-66
2023/08/03 01:16:15;;;;;;;3.17;0.70;;;;;;;;;;5033049;28;20049;-66
2023/08/03 01:18:42;;;;;;;2.47;0.90;;;;;;;;;;5032845;28;20052;-66
2023/08/03 01:21:10;;;;;;;1.33;0.60;;;;;;;;;;5032846;28;20045;-67
2023/08/03 01:23:38;;;;;;;2.83;1.00;;;;;;;;;;5032598;28;20045;-66
2023/08/03 01:26:04;;;;;;;5.28;0.95;;;;;;;;;;5032887;28;20510;-66
2023/08/03 01:28:31;;;;;;;2.75;0.75;;;;;;;;;;5032548;28;20394;-65
2023/08/03 01:30:58;;;;;;;2.85;1.00;;;;;;;;;;5032540;28;20151;-66
2023/08/03 01:33:24;;;;;;;3.97;0.80;;;;;;;;;;5032458;28;20490;-66
2023/08/03 01:35:54;;;;;;;3.42;0.68;;;;;;;;;;5032605;28;20049;-67
2023/08/03 01:38:20;;;;;;;2.63;0.75;;;;;;;;;;5032346;28;20077;-66
2023/08/03 01:40:48;;;;;;;4.30;1.10;;;;;;;;;;5032223;28;20088;-66
2023/08/03 01:43:15;;;;;;;3.17;0.80;;;;;;;;;;5032446;28;20041;-67
2023/08/03 01:45:42;;;;;;;3.60;0.75;;;;;;;;;;5032706;28;20046;-66
2023/08/03 01:48:09;;;;;;;3.80;1.30;;;;;;;;;;5032568;28;20510;-66
2023/08/03 01:50:35;;;;;;;2.72;0.80;;;;;;;;;;5032543;28;20053;-66
2023/08/03 01:53:02;;;;;;;2.10;0.80;;;;;;;;;;5032390;28;20128;-65
2023/08/03 01:55:29;;;;;;;3.55;1.10;;;;;;;;;;5032405;28;20462;-66
2023/08/03 01:57:57;;;;;;;3.38;1.02;;;;;;;;;;5032023;28;20046;-66
2023/08/03 02:00:24;;;;;;;3.67;0.85;;;;;;;;;;5031236;28;20041;-65
2023/08/03 02:02:51;;;;;;;3.05;0.80;;;;;;;;;;5032233;28;20084;-66
2023/08/03 02:05:17;;;;;;;3.85;1.00;;;;;;;;;;5031534;28;20049;-66
2023/08/03 02:07:46;;;;;;;1.33;0.68;;;;;;;;;;5032210;28;20128;-67
2023/08/03 02:10:13;;;;;;;4.07;1.05;;;;;;;;;;5030108;28;20059;-66
2023/08/03 02:12:40;;;;;;;1.95;0.88;;;;;;;;;;5032211;28;20139;-65
2023/08/03 02:15:08;;;;;;;6.07;1.10;;;;;;;;;;5031557;28;20076;-65
2023/08/03 02:17:35;;;;;;;3.00;0.90;;;;;;;;;;5031789;28;20049;-67
2023/08/03 02:20:02;;;;;;;3.00;0.88;;;;;;;;;;5030938;28;20042;-66
2023/08/03 02:22:29;;;;;;;2.72;1.10;;;;;;;;;;5031785;28;20567;-66
2023/08/03 02:24:55;;;;;;;1.80;0.80;;;;;;;;;;5030919;28;20128;-66
2023/08/03 02:27:22;;;;;;;4.00;1.10;;;;;;;;;;5031968;28;20045;-66
2023/08/03 02:29:48;;;;;;;3.28;1.42;;;;;;;;;;5030760;28;20415;-66
2023/08/03 02:32:16;;;;;;;4.13;0.82;;;;;;;;;;5031805;28;20454;-66
2023/08/03 02:34:43;;;;;;;2.33;0.90;;;;;;;;;;5031556;28;20323;-66
2023/08/03 02:37:09;;;;;;;3.03;0.90;;;;;;;;;;5030923;28;20047;-66
2023/08/03 02:39:36;;;;;;;2.65;0.85;;;;;;;;;;5030604;28;20060;-66
2023/08/03 02:42:03;;;;;;;5.40;1.05;;;;;;;;;;5031097;28;20052;-66
2023/08/03 02:44:30;;;;;;;3.25;0.90;;;;;;;;;;5031829;28;20630;-66
2023/08/03 02:46:56;;;;;;;4.82;0.90;;;;;;;;;;5030937;28;20046;-66
2023/08/03 02:49:24;;;;;;;1.90;0.95;;;;;;;;;;5031515;28;20045;-66
2023/08/03 02:51:51;;;;;;;1.67;0.95;;;;;;;;;;5030326;28;20056;-66
2023/08/03 02:54:17;;;;;;;5.07;1.08;;;;;;;;;;5031857;28;20049;-67
2023/08/03 02:56:44;;;;;;;4.97;1.00;;;;;;;;;;5031042;28;20045;-67
2023/08/03 02:59:10;;;;;;;4.55;1.67;;;;;;;;;;5031174;28;20510;-66
2023/08/03 03:01:37;;;;;;;3.75;0.90;;;;;;;;;;5030313;28;20095;-67
2023/08/03 03:04:04;;;;;;;4.55;0.80;;;;;;;;;;5031113;28;20045;-68
2023/08/03 03:06:32;;;;;;;4.30;1.00;;;;;;;;;;5031649;28;20132;-66
2023/08/03 03:08:58;;;;;;;6.22;1.38;;;;;;;;;;5032638;28;20083;-66
2023/08/03 03:11:25;;;;;;;4.28;0.95;;;;;;;;;;5030836;28;20045;-67
2023/08/03 03:13:52;;;;;;;2.58;0.88;;;;;;;;;;5030467;28;20084;-66
2023/08/03 03:16:25;;;;;;;3.33;1.15;;;;;;;;;;5031373;28;20049;-66
2023/08/03 03:18:51;;;;;;;4.10;1.10;;;;;;;;;;5030369;28;20487;-65
2023/08/03 03:21:19;;;;;;;3.25;0.80;;;;;;;;;;5030434;28;20083;-66
2023/08/03 03:23:47;;;;;;;3.65;1.00;;;;;;;;;;5030595;28;20049;-66
2023/08/03 03:26:14;;;;;;;1.75;0.70;;;;;;;;;;5031020;28;20068;-67
2023/08/03 03:28:41;;;;;;;1.30;0.60;;;;;;;;;;5030133;28;20051;-65
2023/08/03 03:31:08;;;;;;;2.60;0.70;;;;;;;;;;5030400;28;20055;-66
2023/08/03 03:33:34;;;;;;;2.25;0.60;;;;;;;;;;5030070;28;20132;-65
2023/08/03 03:36:01;;;;;;;3.38;0.88;;;;;;;;;;5030547;28;20045;-66
2023/08/03 03:38:28;;;;;;;1.02;0.60;;;;;;;;;;5030062;28;20136;-66
2023/08/03 03:40:56;;;;;;;1.83;0.60;;;;;;;;;;5029941;28;20052;-66
2023/08/03 03:43:22;;;;;;;2.65;0.75;;;;;;;;;;5030459;28;20047;-66
2023/08/03 03:45:49;;;;;;;2.90;0.80;;;;;;;;;;5030575;28;20067;-65
2023/08/03 03:48:15;;;;;;;1.27;0.60;;;;;;;;;;5029884;28;20053;-66
2023/08/03 03:50:42;;;;;;;2.63;0.70;;;;;;;;;;5029589;28;20056;-66
2023/08/03 03:53:08;;;;;;;1.50;0.68;;;;;;;;;;5030695;28;20045;-66
2023/08/03 03:55:35;;;;;;;1.17;0.50;;;;;;;;;;5029795;28;20042;-66
2023/08/03 03:58:03;;;;;;;2.70;0.75;;;;;;;;;;5030215;28;20053;-66
2023/08/03 04:00:29;;;;;;;3.17;0.80;;;;;;;;;;5029371;28;20053;-65
2023/08/03 04:02:56;;;;;;;1.45;0.90;;;;;;;;;;5030345;28;20499;-66
2023/08/03 04:05:23;;;;;;;1.95;0.70;;;;;;;;;;5059556;22;20410;-69
2023/08/03 04:07:49;;;;;;;2.60;1.33;;;;;;;;;;5050293;28;20049;-69
2023/08/03 04:10:16;;;;;;;2.33;0.70;;;;;;;;;;5049131;28;20052;-69
2023/08/03 04:12:42;;;;;;;1.98;0.88;;;;;;;;;;5049987;28;20084;-69
2023/08/03 04:15:10;;;;;;;2.22;0.70;;;;;;;;;;5049404;28;20075;-68
2023/08/03 04:17:38;;;;;;;2.47;0.70;;;;;;;;;;5049761;28;20226;-69
2023/08/03 04:20:06;;;;;;;2.38;0.77;;;;;;;;;;5049066;28;20053;-69
2023/08/03 04:22:33;;;;;;;2.72;0.73;;;;;;;;;;5049930;28;20132;-69
2023/08/03 04:24:59;;;;;;;1.63;0.80;;;;;;;;;;5049753;28;20049;-67
2023/08/03 04:27:26;;;;;;;4.88;1.30;;;;;;;;;;5049507;28;20041;-67
2023/08/03 04:29:52;;;;;;;1.92;0.98;;;;;;;;;;5049047;28;20068;-68
2023/08/03 04:32:20;;;;;;;2.28;0.70;;;;;;;;;;5050227;28;20402;-67
2023/08/03 04:34:47;;;;;;;4.45;0.80;;;;;;;;;;5053928;28;20051;-67
2023/08/03 04:37:13;;;;;;;2.10;0.93;;;;;;;;;;5053327;28;20041;-68
2023/08/03 04:39:40;;;;;;;3.95;0.88;;;;;;;;;;5053065;28;20051;-68
2023/08/03 04:42:06;;;;;;;3.65;1.17;;;;;;;;;;5053241;28;20498;-68
2023/08/03 04:44:33;;;;;;;2.55;0.93;;;;;;;;;;5053694;28;20048;-68
2023/08/03 04:47:00;;;;;;;5.85;1.10;;;;;;;;;;5053365;28;20052;-68
2023/08/03 04:49:28;;;;;;;3.65;1.10;;;;;;;;;;5053416;28;20045;-68
2023/08/03 04:51:54;;;;;;;4.20;1.20;;;;;;;;;;5052922;28;20045;-68
2023/08/03 04:54:22;;;;;;;3.85;1.20;;;;;;;;;;5053638;28;20041;-68
2023/08/03 04:56:48;;;;;;;2.88;1.08;;;;;;;;;;5053034;28;20049;-68
2023/08/03 04:59:14;;;;;;;1.92;0.90;;;;;;;;;;5053198;28;20492;-68
2023/08/03 05:01:41;;;;;;;5.90;1.27;;;;;;;;;;5052555;28;20145;-67
2023/08/03 05:04:08;;;;;;;2.67;0.88;;;;;;;;;;5052617;28;20157;-68
2023/08/03 05:06:36;;;;;;;6.45;1.77;;;;;;;;;;5053249;28;20475;-68
2023/08/03 05:09:02;;;;;;;5.15;1.33;;;;;;;;;;5052906;28;20484;-68
2023/08/03 05:11:29;;;;;;;3.35;1.20;;;;;;;;;;5052586;28;20052;-68
2023/08/03 05:13:55;;;;;;;4.60;1.13;;;;;;;;;;5053005;28;20040;-68
2023/08/03 05:16:24;;;;;;;4.43;1.45;;;;;;;;;;5053275;28;20040;-68
2023/08/03 05:18:51;;;;;;;5.03;1.35;;;;;;;;;;5052392;28;20041;-68
2023/08/03 05:21:17;;;;;;;3.95;1.08;;;;;;;;;;5052268;28;20049;-67
2023/08/03 05:23:46;;;;;;;4.07;1.05;;;;;;;;;;5052312;28;20131;-67
2023/08/03 05:26:13;;;;;;;4.47;1.00;;;;;;;;;;5052837;28;20049;-69
2023/08/03 05:28:39;;;;;;;2.63;1.10;;;;;;;;;;5052716;28;20055;-68
2023/08/03 05:31:06;;;;;;;4.78;0.90;;;;;;;;;;5052047;28;20060;-67
2023/08/03 05:33:34;;;;;;;3.40;0.93;;;;;;;;;;5052972;28;20348;-68
2023/08/03 05:36:01;;;;;;;2.00;0.70;;;;;;;;;;5052242;28;20051;-67
2023/08/03 05:38:28;;;;;;;3.03;0.80;;;;;;;;;;5052515;28;20048;-67
2023/08/03 05:40:55;;;;;;;4.57;1.10;;;;;;;;;;5051703;28;20045;-67
2023/08/03 05:43:25;;;;;;;3.00;1.10;;;;;;;;;;5052457;28;20487;-67
2023/08/03 05:45:57;;;;;;;2.58;1.17;;;;;;;;;;5052020;28;20491;-67
2023/08/03 05:48:24;;;;;;;4.72;0.80;;;;;;;;;;5052695;28;20511;-68
2023/08/03 05:50:54;;;;;;;2.50;0.90;;;;;;;;;;5051683;28;20135;-68
2023/08/03 05:53:21;;;;;;;2.70;0.90;;;;;;;;;;5052519;28;20123;-68
2023/08/03 05:55:48;;;;;;;3.67;0.90;;;;;;;;;;5051992;28;20102;-68
2023/08/03 05:58:18;;;;;;;3.92;0.70;;;;;;;;;;5052448;28;20464;-68
2023/08/03 06:00:48;;;;;;;3.03;1.10;;;;;;;;;;5051571;28;20041;-68
2023/08/03 06:03:16;;;;;;;2.35;0.80;;;;;;;;;;5052460;28;20045;-68
2023/08/03 06:05:44;;;;;;;1.25;0.50;;;;;;;;;;5051368;28;20045;-68
2023/08/03 06:08:16;;;;;;;2.17;0.68;;;;;;;;;;5051937;28;20049;-67
2023/08/03 06:10:42;;;;;;;2.03;0.88;;;;;;;;;;5051457;28;20049;-68
2023/08/03 06:13:12;;;;;;;0.90;0.50;;;;;;;;;;5052159;28;20132;-68
2023/08/03 06:15:41;;;;;;;1.90;0.75;;;;;;;;;;5052141;28;20049;-68
2023/08/03 06:18:10;;;;;;;2.10;0.60;;;;;;;;;;5051531;28;20045;-68
2023/08/03 06:20:40;;;;;;;0.88;0.65;;;;;;;;;;5051577;28;20505;-68
2023/08/03 06:23:13;;;;;;;2.22;0.70;;;;;;;;;;5051476;28;20324;-68
2023/08/03 06:25:40;;;;;;;1.25;0.57;;;;;;;;;;5052179;28;20487;-68
2023/08/03 06:28:09;;;;;;;1.40;0.52;;;;;;;;;;5051404;28;20048;-68
2023/08/03 06:30:36;;;;;;;2.30;0.80;;;;;;;;;;5050935;28;20048;-68
2023/08/03 06:33:04;;;;;;;3.25;0.90;;;;;;;;;;5051430;28;20055;-68
2023/08/03 06:35:37;;;;;;;1.33;0.68;;;;;;;;;;5051811;28;20055;-68
2023/08/03 06:38:04;;;;;;;2.08;0.70;;;;;;;;;;5051222;28;20048;-68
2023/08/03 06:40:31;;;;;;;1.02;0.70;;;;;;;;;;5051062;28;20751;-68
2023/08/03 06:42:58;;;;;;;0.60;0.52;;;;;;;;;;5051545;28;20059;-68
2023/08/03 06:45:25;;;;;;;1.52;0.55;;;;;;;;;;5051385;28;20135;-68
2023/08/03 06:47:51;;;;;;;2.55;0.65;;;;;;;;;;5050972;28;20527;-68
2023/08/03 06:50:19;;;;;;;1.45;0.43;;;;;;;;;;5050887;28;20048;-68
2023/08/03 06:52:46;;;;;;;2.33;1.13;;;;;;;;;;5050856;28;20106;-68
2023/08/03 06:55:12;;;;;;;1.20;0.40;;;;;;;;;;5050718;28;20044;-69
2023/08/03 06:57:39;;;;;;;0.55;0.30;;;;;;;;;;5051202;28;20052;-68
2023/08/03 07:00:07;;;;;;;0.90;0.50;;;;;;;;;;5050448;28;20051;-68
2023/08/03 07:02:33;;;;;;;0.55;0.40;;;;;;;;;;5051193;28;20130;-68
2023/08/03 07:05:00;;;;;;;1.00;0.47;;;;;;;;;;5050643;28;20056;-68
2023/08/03 07:07:28;;;;;;;1.02;0.60;;;;;;;;;;5050897;28;20428;-68
2023/08/03 07:09:55;;;;;;;0.85;0.50;;;;;;;;;;5050035;28;20094;-67
2023/08/03 07:12:21;;;;;;;1.92;0.65;;;;;;;;;;5050978;28;20071;-67
2023/08/03 07:14:48;;;;;;;1.10;0.50;;;;;;;;;;5050604;28;20075;-67
2023/08/03 07:17:15;;;;;;;1.27;0.68;;;;;;;;;;5050637;28;20045;-68
2023/08/03 07:19:42;;;;;;;1.25;0.70;;;;;;;;;;5050230;28;20049;-69
2023/08/03 07:22:09;;;;;;;1.88;0.70;;;;;;;;;;5051017;28;20140;-69
2023/08/03 07:24:37;;;;;;;1.30;0.60;;;;;;;;;;5050568;28;20045;-68
2023/08/03 07:27:04;;;;;;;6.13;0.80;;;;;;;;;;5050892;28;20455;-69
2023/08/03 07:29:31;;;;;;;1.58;0.80;;;;;;;;;;5050051;28;20053;-69
2023/08/03 07:31:57;;;;;;;0.63;0.60;;;;;;;;;;5050817;28;20049;-68
2023/08/03 07:34:24;;;;;;;0.52;0.52;;;;;;;;;;5050193;28;20151;-69
2023/08/03 07:36:53;;;;;;;1.52;0.68;;;;;;;;;;5049996;28;20519;-68
2023/08/03 07:39:19;;;;;;;1.17;0.52;;;;;;;;;;5049942;28;20049;-68
2023/08/03 07:41:48;;;;;;;0.82;0.57;;;;;;;;;;5049346;28;20056;-68
2023/08/03 07:44:16;;;;;;;1.02;0.77;;;;;;;;;;5050514;28;20047;-69
2023/08/03 07:46:42;;;;;;;0.90;0.52;;;;;;;;;;5050058;28;20055;-68
2023/08/03 07:49:09;;;;;;;0.40;0.40;;;;;;;;;;5050215;28;20079;-68
2023/08/03 07:51:35;;;;;;;2.15;0.60;;;;;;;;;;5049630;28;20060;-68
2023/08/03 07:54:02;;;;;;;0.65;0.55;;;;;;;;;;5049986;28;20053;-68
2023/08/03 07:56:29;;;;;;;2.97;0.68;;;;;;;;;;5049695;28;20439;-68
2023/08/03 07:58:57;;;;;;;2.92;0.60;;;;;;;;;;5050108;28;20045;-68
2023/08/03 08:01:24;;;;;;;1.88;0.60;;;;;;;;;;5049415;28;20091;-68
2023/08/03 08:03:51;;;;;;;1.92;0.50;;;;;;;;;;5049906;28;20080;-68
2023/08/03 08:06:19;;;;;;;2.00;0.50;;;;;;;;;;5049540;28;20045;-68
2023/08/03 08:08:47;;;;;;;0.40;0.40;;;;;;;;;;5049908;28;20132;-68
2023/08/03 08:11:15;;;;;;;2.42;0.60;;;;;;;;;;5049662;28;20135;-68
2023/08/03 08:13:42;;;;;;;0.52;0.47;;;;;;;;;;5049939;28;20045;-68
2023/08/03 08:16:12;;;;;;;0.75;0.60;;;;;;;;;;5050190;28;20049;-68
2023/08/03 08:18:39;;;;;;;1.08;0.65;;;;;;;;;;5049477;28;20051;-68
2023/08/03 08:21:07;;;;;;;0.93;0.50;;;;;;;;;;5049202;28;20055;-68
2023/08/03 08:23:34;;;;;;;1.02;0.68;;;;;;;;;;5050211;28;20056;-68
2023/08/03 08:26:02;;;;;;;0.47;0.47;;;;;;;;;;5050020;28;20517;-68
2023/08/03 08:28:29;;;;;;;1.13;0.50;;;;;;;;;;5049737;28;20041;-68
2023/08/03 08:30:56;;;;;;;0.57;0.50;;;;;;;;;;5049701;28;20047;-67
2023/08/03 08:33:24;;;;;;;2.45;0.80;;;;;;;;;;5049441;28;20069;-68
2023/08/03 08:35:50;;;;;;;1.30;0.50;;;;;;;;;;5049617;28;20422;-70
2023/08/03 08:38:17;;;;;;;2.10;0.60;;;;;;;;;;5049398;28;20533;-68
2023/08/03 08:40:45;;;;;;;2.30;0.68;;;;;;;;;;5049486;28;20051;-69
2023/08/03 08:43:12;;;;;;;1.48;0.57;;;;;;;;;;5049396;28;20041;-68
2023/08/03 08:45:39;;;;;;;1.17;0.60;;;;;;;;;;5049564;28;20136;-68
2023/08/03 08:48:06;;;;;;;1.55;0.70;;;;;;;;;;5049122;28;20048;-68
2023/08/03 08:50:34;;;;;;;0.50;0.50;;;;;;;;;;5048982;28;20057;-68
2023/08/03 08:53:01;;;;;;;1.40;0.60;;;;;;;;;;5049609;28;20055;-68
2023/08/03 08:55:29;;;;;;;0.80;0.60;;;;;;;;;;5049096;28;20045;-68
2023/08/03 08:57:57;;;;;;;2.63;0.80;;;;;;;;;;5049458;28;20060;-68
2023/08/03 09:00:25;;;;;;;3.17;0.75;;;;;;;;;;5048644;28;20045;-68
2023/08/03 09:02:55;;;;;;;1.05;0.68;;;;;;;;;;5049211;28;20441;-68
2023/08/03 09:05:23;;;;;;;1.05;0.60;;;;;;;;;;5048830;28;20454;-68
2023/08/03 09:08:01;;;;;;;2.70;0.50;;;;;;;;;;5049631;28;20052;-69
2023/08/03 09:10:28;;;;;;;2.00;0.70;;;;;;;;;;5049020;28;20048;-69
2023/08/03 09:12:54;;;;;;;1.35;0.80;;;;;;;;;;5049373;28;20088;-69
2023/08/03 09:15:36;;;;;;;1.17;0.60;;;;;;;;;;5048606;28;20088;-69
2023/08/03 09:18:04;;;;;;;1.50;0.68;;;;;;;;;;5049655;28;20055;-69
2023/08/03 09:20:31;;;;;;;1.80;0.70;;;;;;;;;;5052068;28;20455;-69
2023/08/03 09:22:58;;;;;;;1.50;1.00;;;;;;;;;;5053099;28;20106;-68
2023/08/03 09:25:26;;;;;;;2.90;1.15;;;;;;;;;;5052402;28;20045;-69
2023/08/03 09:27:54;;;;;;;1.23;0.65;;;;;;;;;;5052689;28;20049;-69
2023/08/03 09:30:21;;;;;;;1.40;0.50;;;;;;;;;;5052110;28;20072;-68
2023/08/03 09:32:48;;;;;;;1.98;1.02;;;;;;;;;;5052914;28;20049;-68
2023/08/03 09:35:18;;;;;;;0.88;0.60;;;;;;;;;;5052847;28;20494;-68
2023/08/03 09:37:45;;;;;;;0.60;0.60;;;;;;;;;;5052701;28;20136;-68
2023/08/03 09:40:12;;;;;;;2.53;1.00;;;;;;;;;;5052106;28;20071;-69
2023/08/03 09:42:41;;;;;;;1.50;0.65;;;;;;;;;;5052275;28;20518;-69
2023/08/03 09:45:09;;;;;;;0.77;0.70;;;;;;;;;;5052649;28;20064;-69
2023/08/03 09:47:38;;;;;;;1.67;0.70;;;;;;;;;;5051972;28;20505;-69
2023/08/03 09:50:05;;;;;;;1.02;0.50;;;;;;;;;;5052047;28;20045;-69
2023/08/03 09:52:33;;;;;;;1.95;0.90;;;;;;;;;;5051906;28;20049;-69
2023/08/03 09:55:05;;;;;;;2.03;0.82;;;;;;;;;;5052142;28;20154;-69
2023/08/03 09:57:35;;;;;;;1.30;0.80;;;;;;;;;;5051969;28;20041;-69
2023/08/03 10:00:06;;;;;;;0.90;0.60;;;;;;;;;;5051666;28;20052;-69
2023/08/03 10:02:40;;;;;;;1.15;0.60;;;;;;;;;;5051457;28;20414;-69
2023/08/03 10:05:10;;;;;;;0.73;0.63;;;;;;;;;;5051782;22;20499;-66
2023/08/03 10:07:43;;;;;;;1.45;0.70;;;;;;;;;;5032283;28;20132;-66
2023/08/03 10:10:14;;;;;;;2.15;0.75;;;;;;;;;;5032363;28;20128;-66
2023/08/03 10:12:45;;;;;;;1.45;0.60;;;;;;;;;;5032591;28;20101;-67
2023/08/03 10:15:17;;;;;;;1.48;0.70;;;;;;;;;;5032651;28;20456;-67
2023/08/03 10:17:46;;;;;;;3.47;1.05;;;;;;;;;;5031890;28;20088;-67
2023/08/03 10:20:13;;;;;;;3.35;1.00;;;;;;;;;;5032511;28;20412;-67
2023/08/03 10:23:12;;;;;;;1.20;0.70;;;;;;;;;;5032094;28;20475;-66
2023/08/03 10:25:55;;;;;;;1.77;0.77;;;;;;;;;;5032349;28;20140;-67
2023/08/03 10:28:23;;;;;;;1.83;0.82;;;;;;;;;;5031817;28;20052;-67
2023/08/03 10:31:11;;;;;;;1.08;0.75;;;;;;;;;;5031715;28;20041;-66
2023/08/03 10:34:05;;;;;;;0.70;0.70;;;;;;;;;;5031850;28;20045;-66
2023/08/03 10:36:43;;;;;;;2.75;0.70;;;;;;;;;;5032026;28;20049;-67
2023/08/03 10:39:11;;;;;;;1.95;0.60;;;;;;;;;;5031834;28;20071;-66
2023/08/03 10:41:39;;;;;;;1.80;0.68;;;;;;;;;;5032278;28;20049;-66
2023/08/03 10:44:26;;;;;;;2.40;0.73;;;;;;;;;;5031938;28;20052;-66
2023/08/03 10:46:56;;;;;;;2.47;0.70;;;;;;;;;;5031873;28;20061;-66
2023/08/03 10:49:49;;;;;;;1.15;0.73;;;;;;;;;;5031394;28;20045;-67
2023/08/03 10:52:19;;;;;;;1.80;0.70;;;;;;;;;;5031744;28;20053;-66
2023/08/03 10:54:46;;;;;;;1.80;0.70;;;;;;;;;;5031410;28;20084;-66
2023/08/03 10:57:14;;;;;;;1.10;0.60;;;;;;;;;;5031736;28;20071;-67
2023/08/03 10:59:43;;;;;;;2.88;0.70;;;;;;;;;;5031021;28;20136;-67
2023/08/03 11:02:14;;;;;;;1.08;0.65;;;;;;;;;;5031396;28;20318;-66
2023/08/03 11:04:40;;;;;;;1.92;0.70;;;;;;;;;;5031084;28;20042;-69
2023/08/03 11:07:09;;;;;;;1.55;0.70;;;;;;;;;;5031630;28;20049;-67
2023/08/03 11:09:35;;;;;;;1.65;0.63;;;;;;;;;;5030895;28;20056;-67
2023/08/03 11:12:03;;;;;;;0.90;0.47;;;;;;;;;;5030785;28;20140;-66
2023/08/03 11:14:30;;;;;;;1.17;0.55;;;;;;;;;;5031237;28;20069;-67
2023/08/03 11:16:57;;;;;;;1.10;0.50;;;;;;;;;;5031017;28;20496;-68
2023/08/03 11:19:32;;;;;;;0.70;0.40;;;;;;;;;;5031029;28;20056;-68
2023/08/03 11:21:58;;;;;;;0.82;0.73;;;;;;;;;;5030903;28;20077;-68
2023/08/03 11:24:25;;;;;;;0.90;0.65;;;;;;;;;;5031534;28;20041;-68
2023/08/03 11:26:52;;;;;;;1.98;0.50;;;;;;;;;;5030550;28;20045;-68
2023/08/03 11:29:18;;;;;;;1.23;1.13;;;;;;;;;;5030976;28;20042;-68
2023/08/03 11:31:45;;;;;;;0.80;0.65;;;;;;;;;;5030172;28;20051;-68
2023/08/03 11:34:12;;;;;;;0.75;0.50;;;;;;;;;;5030959;28;20136;-68
2023/08/03 11:36:39;;;;;;;1.42;1.33;;;;;;;;;;5030358;28;20051;-68
2023/08/03 11:39:06;;;;;;;1.45;0.47;;;;;;;;;;5030620;28;20051;-69
2023/08/03 11:41:34;;;;;;;0.63;0.40;;;;;;;;;;5029921;28;20053;-68
2023/08/03 11:44:00;;;;;;;1.63;0.80;;;;;;;;;;5030841;28;20045;-68
2023/08/03 11:46:28;;;;;;;0.40;0.40;;;;;;;;;;5030690;28;20077;-68
2023/08/03 11:48:57;;;;;;;0.63;0.60;;;;;;;;;;5030629;28;20049;-68
2023/08/03 11:51:31;;;;;;;0.80;0.43;;;;;;;;;;5030911;28;20056;-68
2023/08/03 11:54:01;;;;;;;0.95;0.50;;;;;;;;;;5030133;28;20061;-68
2023/08/03 11:56:28;;;;;;;1.48;0.60;;;;;;;;;;5030900;28;20049;-68
2023/08/03 11:58:56;;;;;;;0.63;0.40;;;;;;;;;;5030440;28;20149;-68
2023/08/03 12:01:25;;;;;;;0.73;0.50;;;;;;;;;;5030524;28;20505;-68
2023/08/03 12:04:04;;;;;;;0.50;0.43;;;;;;;;;;5030174;28;20042;-68
2023/08/03 12:06:46;;;;;;;0.90;0.60;;;;;;;;;;5031088;28;20049;-68
2023/08/03 12:09:20;;;;;;;0.98;0.75;;;;;;;;;;5029945;28;20041;-68
2023/08/03 12:11:46;;;;;;;0.63;0.40;;;;;;;;;;5031019;28;20046;-68
2023/08/03 12:14:13;;;;;;;0.40;0.40;;;;;;;;;;5030283;28;20491;-68
2023/08/03 12:16:40;;;;;;;0.55;0.50;;;;;;;;;;5030469;28;20067;-67
2023/08/03 12:19:08;;;;;;;0.50;0.50;;;;;;;;;;5029792;28;20052;-67
2023/08/03 12:21:35;;;;;;;0.50;0.50;;;;;;;;;;5030374;28;20045;-67
2023/08/03 12:24:02;;;;;;;1.90;0.40;;;;;;;;;;5029695;28;20049;-68
2023/08/03 12:26:30;;;;;;;0.57;0.40;;;;;;;;;;5030505;28;20083;-68
2023/08/03 12:28:57;;;;;;;0.50;0.50;;;;;;;;;;5029912;28;20128;-67
2023/08/03 12:31:24;;;;;;;0.73;0.40;;;;;;;;;;5030434;28;20455;-68
2023/08/03 12:33:51;;;;;;;1.48;0.50;;;;;;;;;;5030189;28;20042;-68
2023/08/03 12:36:18;;;;;;;0.80;0.50;;;;;;;;;;5030188;28;20400;-67
2023/08/03 12:38:44;;;;;;;0.40;0.40;;;;;;;;;;5030306;28;20057;-67
2023/08/03 12:41:12;;;;;;;2.08;0.57;;;;;;;;;;5029575;28;20045;-68
2023/08/03 12:43:40;;;;;;;0.65;0.50;;;;;;;;;;5030114;28;20458;-68
2023/08/03 12:46:07;;;;;;;1.00;0.50;;;;;;;;;;5030002;28;20392;-68
2023/08/03 12:48:33;;;;;;;0.50;0.50;;;;;;;;;;5030175;28;20061;-68
2023/08/03 12:51:00;;;;;;;0.45;0.40;;;;;;;;;;5029834;28;20049;-68
2023/08/03 12:53:27;;;;;;;0.63;0.60;;;;;;;;;;5031139;28;20148;-67
2023/08/03 12:55:53;;;;;;;0.70;0.50;;;;;;;;;;5033345;28;20046;-67
2023/08/03 12:58:20;;;;;;;0.85;0.57;;;;;;;;;;5034317;28;20051;-67
2023/08/03 13:00:49;;;;;;;0.93;0.68;;;;;;;;;;5033670;28;20049;-67
2023/08/03 13:03:16;;;;;;;0.45;0.45;;;;;;;;;;5033868;28;20104;-68
2023/08/03 13:05:43;;;;;;;0.77;0.50;;;;;;;;;;5033130;28;20247;-68
2023/08/03 13:08:11;;;;;;;0.40;0.40;;;;;;;;;;5033617;28;20068;-68
2023/08/03 13:10:37;;;;;;;1.95;0.70;;;;;;;;;;5033387;28;20045;-68
2023/08/03 13:13:04;;;;;;;1.60;0.57;;;;;;;;;;5033842;28;20053;-67
2023/08/03 13:15:30;;;;;;;1.42;0.90;;;;;;;;;;5033711;28;20045;-68
2023/08/03 13:17:58;;;;;;;4.30;0.80;;;;;;;;;;5032690;28;20049;-68
2023/08/03 13:20:25;;;;;;;3.03;0.93;;;;;;;;;;5033616;28;20509;-68
2023/08/03 13:22:51;;;;;;;0.93;0.82;;;;;;;;;;5033164;28;20518;-68
2023/08/03 13:25:18;;;;;;;3.40;1.80;;;;;;;;;;5033452;28;20410;-68
2023/08/03 13:27:46;;;;;;;2.10;1.00;;;;;;;;;;5032949;28;20403;-68
2023/08/03 13:30:14;;;;;;;2.35;1.08;;;;;;;;;;5033641;28;20490;-68
2023/08/03 13:32:44;;;;;;;2.25;1.10;;;;;;;;;;5032923;28;20099;-68
2023/08/03 13:35:12;;;;;;;1.02;0.90;;;;;;;;;;5034878;28;20041;-68
2023/08/03 13:37:39;;;;;;;1.80;1.10;;;;;;;;;;5034777;28;20418;-68
2023/08/03 13:40:08;;;;;;;1.73;0.80;;;;;;;;;;5033989;28;20084;-68
2023/08/03 13:42:34;;;;;;;3.08;1.20;;;;;;;;;;5032994;28;20049;-68
2023/08/03 13:45:01;;;;;;;1.02;0.77;;;;;;;;;;5033076;28;20049;-68
2023/08/03 13:47:28;;;;;;;1.15;1.00;;;;;;;;;;5033036;28;20045;-68
2023/08/03 13:49:55;;;;;;;2.55;1.10;;;;;;;;;;5033240;28;20132;-68
2023/08/03 13:52:23;;;;;;;1.67;1.20;;;;;;;;;;5033709;28;20045;-68
2023/08/03 13:54:49;;;;;;;2.15;1.52;;;;;;;;;;5032692;28;20049;-68
2023/08/03 13:57:16;;;;;;;1.80;1.10;;;;;;;;;;5033011;28;20141;-68
2023/08/03 13:59:43;;;;;;;2.13;1.20;;;;;;;;;;5032398;28;20053;-68
2023/08/03 14:02:11;;;;;;;1.08;0.80;;;;;;;;;;5032999;28;20055;-68
2023/08/03 14:04:37;;;;;;;0.90;0.90;;;;;;;;;;5031770;28;20056;-68
2023/08/03 14:07:05;;;;;;;1.50;0.90;;;;;;;;;;5032833;28;20041;-68
2023/08/03 14:09:33;;;;;;;1.88;1.10;;;;;;;;;;5032398;28;20109;-68
2023/08/03 14:11:59;;;;;;;1.02;0.80;;;;;;;;;;5032623;28;20052;-68
2023/08/03 14:14:26;;;;;;;0.90;0.80;;;;;;;;;;5032357;28;20049;-69
2023/08/03 14:16:53;;;;;;;1.70;0.70;;;;;;;;;;5032919;28;20049;-68
2023/08/03 14:19:22;;;;;;;1.73;0.80;;;;;;;;;;5032040;28;20049;-68
2023/08/03 14:21:48;;;;;;;1.80;0.70;;;;;;;;;;5032524;28;20060;-68
2023/08/03 14:24:15;;;;;;;1.08;0.60;;;;;;;;;;5032459;28;20402;-68
2023/08/03 14:26:43;;;;;;;1.20;0.70;;;;;;;;;;5032864;28;20049;-68
2023/08/03 14:29:10;;;;;;;1.50;1.10;;;;;;;;;;5032884;28;20049;-68
2023/08/03 14:31:36;;;;;;;1.23;0.90;;;;;;;;;;5031911;28;20388;-68
2023/08/03 14:34:03;;;;;;;1.27;1.00;;;;;;;;;;5032232;28;20542;-68
2023/08/03 14:36:29;;;;;;;1.10;1.00;;;;;;;;;;5031963;28;20052;-68
2023/08/03 14:38:55;;;;;;;1.45;1.08;;;;;;;;;;5031856;28;20052;-68
2023/08/03 14:41:25;;;;;;;3.20;1.30;;;;;;;;;;5031493;28;20132;-68
2023/08/03 14:43:53;;;;;;;2.92;1.35;;;;;;;;;;5032290;28;20132;-68
2023/08/03 14:46:20;;;;;;;3.30;1.23;;;;;;;;;;5031395;28;20133;-69